createdAt,value
2019-03-16T00:02:14.477Z,5.80
2019-03-16T00:04:42.907Z,5.20
2019-03-16T00:07:11.448Z,5.40
2019-03-16T00:09:39.873Z,5.40
2019-03-16T00:12:08.326Z,5.42
2019-03-16T00:14:36.756Z,4.65
2019-03-16T00:17:05.215Z,6.15
2019-03-16T00:19:33.714Z,5.08
2019-03-16T00:22:02.224Z,4.97
2019-03-16T00:24:30.725Z,5.78
2019-03-16T00:26:59.159Z,5.55
2019-03-16T00:29:27.590Z,5.78
2019-03-16T00:31:56.036Z,5.53
2019-03-16T00:34:24.593Z,6.40
2019-03-16T00:36:53.154Z,5.95
2019-03-16T00:39:21.660Z,6.85
2019-03-16T00:41:51.754Z,6.03
2019-03-16T00:44:20.126Z,6.25
2019-03-16T00:46:48.543Z,6.23
2019-03-16T00:49:16.996Z,6.28
2019-03-16T00:51:45.590Z,5.80
2019-03-16T00:54:14.105Z,5.83
2019-03-16T00:56:42.638Z,7.10
2019-03-16T00:59:11.070Z,6.47
2019-03-16T01:01:39.518Z,6.60
2019-03-16T01:04:08.089Z,5.77
2019-03-16T01:06:36.514Z,5.72
2019-03-16T01:09:07.520Z,6.20
2019-03-16T01:11:35.951Z,5.90
2019-03-16T01:14:04.546Z,6.75
2019-03-16T01:16:33.210Z,6.58
2019-03-16T01:19:01.750Z,6.65
2019-03-16T01:21:30.348Z,6.58
2019-03-16T01:23:58.808Z,6.70
2019-03-16T01:26:27.233Z,6.80
2019-03-16T01:28:55.697Z,6.87
2019-03-16T01:31:24.323Z,7.10
2019-03-16T01:33:52.747Z,6.85
2019-03-16T01:36:21.200Z,7.17
2019-03-16T01:38:49.638Z,7.03
2019-03-16T01:41:18.096Z,6.55
2019-03-16T01:43:46.530Z,7.28
2019-03-16T01:46:15.052Z,6.60
2019-03-16T01:48:43.717Z,7.10
2019-03-16T01:51:12.118Z,6.55
2019-03-16T01:53:40.575Z,7.07
2019-03-16T01:56:09.000Z,6.15
2019-03-16T01:58:37.525Z,6.24
2019-03-16T02:01:06.084Z,6.10
2019-03-16T02:03:34.718Z,6.60
2019-03-16T02:06:03.178Z,6.03
2019-03-16T02:08:32.741Z,5.87
2019-03-16T02:11:01.344Z,6.55
2019-03-16T02:13:29.938Z,5.35
2019-03-16T02:16:10.469Z,6.40
2019-03-16T02:18:28.599Z,5.90
2019-03-16T02:20:57.276Z,5.60
2019-03-16T02:23:25.706Z,5.35
2019-03-16T02:25:54.284Z,5.03
2019-03-16T02:28:22.656Z,5.78
2019-03-16T02:30:51.088Z,5.10
2019-03-16T02:33:19.560Z,5.37
2019-03-16T02:35:48.041Z,5.12
2019-03-16T02:38:16.465Z,5.50
2019-03-16T02:40:44.966Z,5.47
2019-03-16T02:43:13.394Z,5.00
2019-03-16T02:45:41.850Z,5.28
2019-03-16T02:48:10.348Z,4.70
2019-03-16T02:50:38.851Z,5.62
2019-03-16T02:53:07.323Z,4.75
2019-03-16T02:55:35.811Z,4.67
2019-03-16T02:58:04.329Z,4.60
2019-03-16T03:00:33.186Z,4.95
2019-03-16T03:03:01.609Z,5.20
2019-03-16T03:05:30.416Z,4.90
2019-03-16T03:07:58.968Z,5.28
2019-03-16T03:10:27.351Z,4.67
2019-03-16T03:12:55.777Z,5.28
2019-03-16T03:15:24.213Z,5.00
2019-03-16T03:17:52.653Z,4.58
2019-03-16T03:20:21.107Z,4.95
2019-03-16T03:22:49.562Z,4.50
2019-03-16T03:25:18.050Z,5.17
2019-03-16T03:27:46.508Z,5.10
2019-03-16T03:30:15.213Z,4.70
2019-03-16T03:32:43.709Z,5.05
2019-03-16T03:35:12.255Z,5.15
2019-03-16T03:37:40.663Z,4.90
2019-03-16T03:40:12.589Z,4.60
2019-03-16T03:42:41.116Z,5.85
2019-03-16T03:45:11.391Z,5.40
2019-03-16T03:47:40.069Z,5.72
2019-03-16T03:50:12.919Z,5.60
2019-03-16T03:52:41.358Z,5.67
2019-03-16T03:55:11.719Z,5.03
2019-03-16T03:57:40.305Z,5.28
2019-03-16T04:00:14.035Z,6.30
2019-03-16T04:02:42.688Z,5.70
2019-03-16T04:05:11.469Z,5.80
2019-03-16T04:07:40.020Z,5.45
2019-03-16T04:10:09.880Z,5.60
2019-03-16T04:12:38.413Z,5.87
2019-03-16T04:15:09.887Z,5.22
2019-03-16T04:17:38.489Z,5.42
2019-03-16T04:20:09.758Z,5.40
2019-03-16T04:22:38.323Z,6.14
2019-03-16T04:25:06.820Z,5.22
2019-03-16T04:27:35.279Z,5.37
2019-03-16T04:30:05.084Z,5.40
2019-03-16T04:32:33.510Z,5.35
2019-03-16T04:35:01.970Z,5.20
2019-03-16T04:37:30.481Z,5.60
2019-03-16T04:39:58.939Z,6.33
2019-03-16T04:42:27.412Z,6.70
2019-03-16T04:44:55.817Z,6.80
2019-03-16T04:47:24.291Z,7.12
2019-03-16T04:49:52.724Z,6.25
2019-03-16T04:52:21.153Z,5.67
2019-03-16T04:54:49.582Z,6.13
2019-03-16T04:57:18.009Z,6.10
2019-03-16T04:59:46.498Z,5.15
2019-03-16T05:02:14.929Z,6.12
2019-03-16T05:04:43.370Z,5.47
2019-03-16T05:07:11.803Z,5.95
2019-03-16T05:09:40.235Z,6.08
2019-03-16T05:12:08.695Z,5.63
2019-03-16T05:14:37.190Z,5.90
2019-03-16T05:17:05.646Z,6.55
2019-03-16T05:19:34.145Z,7.95
2019-03-16T05:22:02.578Z,6.97
2019-03-16T05:24:31.081Z,7.35
2019-03-16T05:26:59.508Z,7.62
2019-03-16T05:29:27.937Z,8.28
2019-03-16T05:31:56.397Z,8.10
2019-03-16T05:34:24.836Z,8.63
2019-03-16T05:36:55.963Z,10.40
2019-03-16T05:39:23.422Z,9.13
2019-03-16T05:41:51.851Z,9.60
2019-03-16T05:44:20.287Z,10.65
2019-03-16T05:46:48.757Z,10.48
2019-03-16T05:49:17.217Z,11.43
2019-03-16T05:51:45.653Z,10.80
2019-03-16T05:54:14.086Z,12.58
2019-03-16T05:56:42.534Z,12.00
2019-03-16T05:59:10.960Z,12.18
2019-03-16T06:01:39.419Z,10.80
2019-03-16T06:04:07.854Z,12.28
2019-03-16T06:06:36.285Z,12.13
2019-03-16T06:09:06.453Z,12.45
2019-03-16T06:11:34.907Z,12.40
2019-03-16T06:14:03.417Z,12.53
2019-03-16T06:16:32.001Z,14.47
2019-03-16T06:19:00.436Z,12.70
2019-03-16T06:21:28.946Z,13.55
2019-03-16T06:23:57.376Z,14.90
2019-03-16T06:26:25.833Z,14.03
2019-03-16T06:28:54.277Z,14.25
2019-03-16T06:31:22.843Z,14.43
2019-03-16T06:33:51.340Z,17.05
2019-03-16T06:36:19.765Z,15.00
2019-03-16T06:38:48.205Z,16.50
2019-03-16T06:41:16.680Z,16.42
2019-03-16T06:43:45.116Z,16.87
2019-03-16T06:46:13.556Z,16.52
2019-03-16T06:48:41.995Z,15.63
2019-03-16T06:51:10.448Z,16.02
2019-03-16T06:53:38.953Z,15.15
2019-03-16T06:56:07.505Z,15.55
2019-03-16T06:58:35.999Z,14.85
2019-03-16T07:01:04.509Z,15.45
2019-03-16T07:03:33.053Z,14.63
2019-03-16T07:06:01.511Z,13.20
2019-03-16T07:08:29.948Z,10.75
2019-03-16T07:10:58.402Z,10.28
2019-03-16T07:13:26.845Z,10.30
2019-03-16T07:15:55.283Z,10.40
2019-03-16T07:18:23.722Z,9.90
2019-03-16T07:20:52.191Z,9.67
2019-03-16T07:23:20.709Z,10.75
2019-03-16T07:25:49.115Z,11.85
2019-03-16T07:28:17.551Z,9.98
2019-03-16T07:30:45.987Z,11.68
2019-03-16T07:33:14.430Z,10.82
2019-03-16T07:35:42.886Z,11.22
2019-03-16T07:38:11.355Z,9.18
2019-03-16T07:40:39.791Z,8.58
2019-03-16T07:43:08.242Z,7.22
2019-03-16T07:45:36.670Z,7.50
2019-03-16T07:48:05.095Z,6.33
2019-03-16T07:50:33.705Z,6.22
2019-03-16T07:53:02.289Z,7.33
2019-03-16T07:55:30.856Z,6.20
2019-03-16T07:57:59.290Z,6.58
2019-03-16T08:00:27.805Z,7.08
2019-03-16T08:02:56.239Z,7.47
2019-03-16T08:05:24.674Z,7.03
2019-03-16T08:07:53.129Z,8.33
2019-03-16T08:10:21.569Z,9.83
2019-03-16T08:12:50.000Z,8.80
2019-03-16T08:15:18.440Z,9.20
2019-03-16T08:17:46.874Z,10.23
2019-03-16T08:20:15.827Z,10.00
2019-03-16T08:22:44.339Z,10.43
2019-03-16T08:25:13.235Z,10.78
2019-03-16T08:27:53.516Z,11.20
2019-03-16T08:30:12.449Z,10.95
2019-03-16T08:32:40.878Z,10.93
2019-03-16T08:35:09.762Z,10.45
2019-03-16T08:37:38.193Z,8.78
2019-03-16T08:40:09.571Z,10.20
2019-03-16T08:42:38.042Z,10.08
2019-03-16T08:45:10.609Z,8.23
2019-03-16T08:47:39.217Z,8.85
2019-03-16T08:50:09.183Z,7.97
2019-03-16T08:52:37.693Z,7.30
2019-03-16T08:55:07.852Z,6.85
2019-03-16T08:57:36.304Z,6.55
2019-03-16T09:00:07.343Z,6.15
2019-03-16T09:02:35.772Z,5.95
2019-03-16T09:05:05.272Z,4.72
2019-03-16T09:07:33.693Z,6.45
2019-03-16T09:10:02.139Z,5.53
2019-03-16T09:12:30.738Z,5.33
2019-03-16T09:14:59.207Z,5.20
2019-03-16T09:17:27.639Z,5.83
2019-03-16T09:19:56.063Z,5.50
2019-03-16T09:22:24.505Z,6.92
2019-03-16T09:24:52.941Z,6.67
2019-03-16T09:27:30.627Z,5.72
2019-03-16T09:29:51.594Z,6.00
2019-03-16T09:32:20.017Z,5.97
2019-03-16T09:34:48.468Z,5.60
2019-03-16T09:37:16.909Z,5.50
2019-03-16T09:39:45.412Z,5.58
2019-03-16T09:42:13.837Z,5.72
2019-03-16T09:44:42.291Z,5.15
2019-03-16T09:47:10.831Z,5.83
2019-03-16T09:49:39.256Z,5.05
2019-03-16T09:52:07.776Z,5.65
2019-03-16T09:54:36.194Z,4.65
2019-03-16T09:57:04.964Z,5.20
2019-03-16T09:59:33.500Z,4.70
2019-03-16T10:02:02.060Z,5.40
2019-03-16T10:04:30.489Z,5.65
2019-03-16T10:06:58.923Z,4.83
2019-03-16T10:09:27.455Z,4.53
2019-03-16T10:11:55.911Z,4.45
2019-03-16T10:14:24.348Z,4.37
2019-03-16T10:16:56.058Z,4.10
2019-03-16T10:19:24.484Z,4.40
2019-03-16T10:21:52.914Z,4.50
2019-03-16T10:24:21.348Z,4.12
2019-03-16T10:26:50.070Z,3.73
2019-03-16T10:29:18.772Z,4.17
2019-03-16T10:31:47.201Z,4.08
2019-03-16T10:34:16.024Z,3.90
2019-03-16T10:36:44.656Z,4.67
2019-03-16T10:39:13.080Z,4.10
2019-03-16T10:41:41.515Z,4.25
2019-03-16T10:44:09.989Z,4.45
2019-03-16T10:46:38.546Z,3.98
2019-03-16T10:49:07.133Z,4.00
2019-03-16T10:51:35.642Z,3.95
2019-03-16T10:54:04.146Z,4.83
2019-03-16T10:56:32.706Z,4.15
2019-03-16T10:59:01.145Z,4.40
2019-03-16T11:01:29.600Z,4.93
2019-03-16T11:03:58.966Z,4.10
2019-03-16T11:06:27.424Z,3.90
2019-03-16T11:08:55.861Z,3.87
2019-03-16T11:11:24.318Z,3.95
2019-03-16T11:13:52.753Z,3.90
2019-03-16T11:16:21.213Z,4.10
2019-03-16T11:18:49.748Z,4.40
2019-03-16T11:21:18.379Z,4.10
2019-03-16T11:23:46.980Z,4.10
2019-03-16T11:26:15.406Z,3.70
2019-03-16T11:28:44.012Z,4.30
2019-03-16T11:31:12.769Z,4.37
2019-03-16T11:33:41.900Z,4.10
2019-03-16T11:36:11.264Z,4.15
2019-03-16T11:38:40.447Z,3.70
2019-03-16T11:41:09.909Z,4.70
2019-03-16T11:43:38.350Z,4.00
2019-03-16T11:46:06.787Z,4.00
2019-03-16T11:48:35.218Z,4.67
2019-03-16T11:51:03.679Z,4.53
2019-03-16T11:53:32.115Z,4.20
2019-03-16T11:56:00.545Z,3.80
2019-03-16T11:58:29.075Z,4.75
2019-03-16T12:00:57.704Z,4.28
2019-03-16T12:03:26.163Z,4.22
2019-03-16T12:05:54.597Z,4.00
2019-03-16T12:08:23.036Z,4.30
2019-03-16T12:10:51.537Z,4.83
2019-03-16T12:13:20.242Z,3.70
2019-03-16T12:15:48.845Z,4.35
2019-03-16T12:18:17.285Z,3.67
2019-03-16T12:20:45.784Z,3.87
2019-03-16T12:23:14.234Z,3.80
2019-03-16T12:25:42.808Z,4.20
2019-03-16T12:28:11.251Z,4.20
2019-03-16T12:30:40.152Z,4.17
2019-03-16T12:33:08.607Z,4.30
2019-03-16T12:35:37.036Z,4.40
2019-03-16T12:38:05.610Z,4.62
2019-03-16T12:40:34.345Z,3.95
2019-03-16T12:43:02.789Z,3.87
2019-03-16T12:45:31.222Z,4.10
2019-03-16T12:47:59.656Z,4.10
2019-03-16T12:50:28.086Z,4.10
2019-03-16T12:52:56.610Z,3.92
2019-03-16T12:55:25.042Z,4.50
2019-03-16T12:57:53.664Z,4.28
2019-03-16T13:00:23.444Z,3.90
2019-03-16T13:02:51.888Z,4.40
2019-03-16T13:05:20.345Z,4.22
2019-03-16T13:07:48.780Z,4.70
2019-03-16T13:10:18.732Z,4.33
2019-03-16T13:12:47.311Z,5.40
2019-03-16T13:15:16.059Z,4.00
2019-03-16T13:17:44.562Z,3.92
2019-03-16T13:20:14.028Z,3.98
2019-03-16T13:22:42.480Z,4.62
2019-03-16T13:25:11.555Z,4.40
2019-03-16T13:27:40.192Z,4.30
2019-03-16T13:30:14.989Z,4.92
2019-03-16T13:32:43.543Z,4.43
2019-03-16T13:35:12.348Z,4.78
2019-03-16T13:37:40.808Z,4.72
2019-03-16T13:40:12.372Z,4.83
2019-03-16T13:42:40.913Z,4.10
2019-03-16T13:45:10.779Z,4.60
2019-03-16T13:47:39.655Z,4.80
2019-03-16T13:50:13.076Z,4.40
2019-03-16T13:52:41.711Z,5.00
2019-03-16T13:55:10.381Z,4.30
2019-03-16T13:57:38.925Z,4.20
2019-03-16T14:00:15.598Z,4.20
2019-03-16T14:02:44.185Z,4.43
2019-03-16T14:05:12.747Z,4.07
2019-03-16T14:07:41.466Z,3.95
2019-03-16T14:10:22.475Z,4.78
2019-03-16T14:12:50.924Z,3.60
2019-03-16T14:15:19.489Z,4.12
2019-03-16T14:17:47.950Z,4.13
2019-03-16T14:20:17.066Z,3.80
2019-03-16T14:22:45.498Z,4.30
2019-03-16T14:25:13.930Z,4.10
2019-03-16T14:27:42.408Z,4.67
2019-03-16T14:30:34.778Z,4.20
2019-03-16T14:32:46.126Z,4.13
2019-03-16T14:35:14.964Z,3.42
2019-03-16T14:37:43.664Z,3.95
2019-03-16T14:40:13.497Z,3.80
2019-03-16T14:42:42.080Z,3.72
2019-03-16T14:45:12.654Z,3.87
2019-03-16T14:47:41.177Z,3.80
2019-03-16T14:50:23.361Z,3.60
2019-03-16T14:52:51.790Z,3.98
2019-03-16T14:55:20.579Z,4.22
2019-03-16T14:57:49.234Z,6.00
2019-03-16T15:00:18.448Z,6.77
2019-03-16T15:02:47.075Z,7.07
2019-03-16T15:05:15.831Z,7.28
2019-03-16T15:07:44.332Z,7.08
2019-03-16T15:10:15.034Z,6.10
2019-03-16T15:12:43.559Z,6.17
2019-03-16T15:15:14.691Z,4.93
2019-03-16T15:17:43.321Z,4.72
2019-03-16T15:20:12.828Z,4.80
2019-03-16T15:22:41.333Z,4.43
2019-03-16T15:25:13.528Z,4.50
2019-03-16T15:27:42.177Z,4.40
2019-03-16T15:30:15.665Z,4.57
2019-03-16T15:32:44.104Z,4.67
2019-03-16T15:35:12.703Z,4.35
2019-03-16T15:37:41.227Z,4.58
2019-03-16T15:40:17.169Z,4.35
2019-03-16T15:42:45.690Z,3.70
2019-03-16T15:45:19.490Z,4.50
2019-03-16T15:47:48.090Z,4.00
2019-03-16T15:50:16.684Z,4.27
2019-03-16T15:52:45.198Z,3.83
2019-03-16T15:55:13.833Z,4.50
2019-03-16T15:57:43.016Z,4.40
2019-03-16T16:00:16.543Z,4.65
2019-03-16T16:02:45.172Z,4.67
2019-03-16T16:05:13.947Z,4.95
2019-03-16T16:07:43.496Z,4.40
2019-03-16T16:10:19.676Z,4.53
2019-03-16T16:12:48.252Z,5.28
2019-03-16T16:15:16.953Z,4.55
2019-03-16T16:17:45.462Z,4.05
2019-03-16T16:20:15.378Z,4.45
2019-03-16T16:22:43.877Z,4.40
2019-03-16T16:25:13.358Z,4.20
2019-03-16T16:27:41.878Z,4.50
2019-03-16T16:30:15.049Z,4.70
2019-03-16T16:32:43.478Z,4.40
2019-03-16T16:35:13.357Z,4.67
2019-03-16T16:37:41.817Z,4.78
2019-03-16T16:40:15.481Z,4.10
2019-03-16T16:42:44.552Z,4.70
2019-03-16T16:45:15.063Z,4.20
2019-03-16T16:47:43.602Z,4.72
2019-03-16T16:50:26.288Z,4.07
2019-03-16T16:52:54.716Z,4.00
2019-03-16T16:55:23.225Z,3.83
2019-03-16T16:57:51.688Z,4.12
2019-03-16T17:00:25.427Z,4.37
2019-03-16T17:02:54.187Z,4.17
2019-03-16T17:05:22.660Z,4.60
2019-03-16T17:07:51.206Z,3.80
2019-03-16T17:10:19.747Z,4.00
2019-03-16T17:12:48.213Z,3.83
2019-03-16T17:15:18.293Z,3.83
2019-03-16T17:17:46.724Z,4.20
2019-03-16T17:20:16.029Z,3.92
2019-03-16T17:22:44.636Z,4.40
2019-03-16T17:25:14.141Z,3.80
2019-03-16T17:27:42.812Z,3.80
2019-03-16T17:30:14.082Z,4.28
2019-03-16T17:32:42.681Z,3.87
2019-03-16T17:35:11.552Z,4.45
2019-03-16T17:37:39.997Z,3.90
2019-03-16T17:40:11.522Z,4.37
2019-03-16T17:42:40.049Z,4.03
2019-03-16T17:45:11.249Z,4.60
2019-03-16T17:47:39.974Z,4.37
2019-03-16T17:50:11.330Z,4.20
2019-03-16T17:52:39.917Z,4.28
2019-03-16T17:55:11.312Z,4.20
2019-03-16T17:57:39.873Z,4.50
2019-03-16T18:00:13.653Z,4.50
2019-03-16T18:02:51.220Z,4.35
2019-03-16T18:05:12.384Z,4.30
2019-03-16T18:07:40.970Z,3.77
2019-03-16T18:10:11.171Z,4.15
2019-03-16T18:12:39.599Z,4.50
2019-03-16T18:15:14.135Z,4.80
2019-03-16T18:17:42.633Z,4.03
2019-03-16T18:20:20.814Z,4.42
2019-03-16T18:22:49.362Z,4.00
2019-03-16T18:25:17.881Z,4.08
2019-03-16T18:27:46.479Z,3.87
2019-03-16T18:30:22.826Z,3.85
2019-03-16T18:32:51.250Z,4.40
2019-03-16T18:35:19.823Z,4.30
2019-03-16T18:37:48.253Z,4.05
2019-03-16T18:40:17.025Z,4.00
2019-03-16T18:42:45.602Z,3.72
2019-03-16T18:45:23.000Z,3.83
2019-03-16T18:47:51.448Z,4.50
2019-03-16T18:50:20.025Z,4.83
2019-03-16T18:52:49.054Z,4.20
2019-03-16T18:55:17.573Z,4.15
2019-03-16T18:57:46.013Z,4.42
2019-03-16T19:00:18.896Z,4.60
2019-03-16T19:02:47.543Z,4.83
2019-03-16T19:05:16.247Z,4.37
2019-03-16T19:07:44.888Z,5.30
2019-03-16T19:10:15.606Z,4.70
2019-03-16T19:12:44.652Z,5.30
2019-03-16T19:15:15.558Z,4.50
2019-03-16T19:17:44.062Z,5.35
2019-03-16T19:20:13.967Z,4.87
2019-03-16T19:22:42.739Z,5.00
2019-03-16T19:25:16.809Z,5.87
2019-03-16T19:30:14.892Z,5.37
2019-03-16T19:32:43.860Z,5.40
2019-03-16T19:35:12.772Z,5.08
2019-03-16T19:37:41.782Z,5.97
2019-03-16T19:40:14.972Z,6.40
2019-03-16T19:42:46.487Z,6.13
2019-03-16T19:45:13.723Z,5.78
2019-03-16T19:47:42.252Z,5.67
2019-03-16T19:50:17.670Z,5.92
2019-03-16T19:52:46.225Z,5.75
2019-03-16T19:55:15.064Z,5.30
2019-03-16T19:57:43.512Z,5.72
2019-03-16T20:00:17.005Z,6.05
2019-03-16T20:02:50.706Z,5.65
2019-03-16T20:05:16.185Z,6.05
2019-03-16T20:07:44.767Z,5.00
2019-03-16T20:10:14.584Z,5.85
2019-03-16T20:12:43.143Z,5.42
2019-03-16T20:15:12.999Z,5.53
2019-03-16T20:17:41.451Z,5.90
2019-03-16T20:20:11.487Z,5.10
2019-03-16T20:22:39.969Z,5.75
2019-03-16T20:25:08.871Z,5.50
2019-03-16T20:27:37.381Z,5.20
2019-03-16T20:30:11.578Z,5.17
2019-03-16T20:32:40.058Z,4.95
2019-03-16T20:35:09.650Z,4.93
2019-03-16T20:37:38.145Z,5.42
2019-03-16T20:40:11.978Z,5.83
2019-03-16T20:45:09.743Z,4.50
2019-03-16T20:47:38.170Z,5.10
2019-03-16T20:50:12.591Z,5.70
2019-03-16T20:52:41.027Z,5.55
2019-03-16T20:55:10.358Z,4.78
2019-03-16T20:57:38.983Z,5.92
2019-03-16T21:00:12.645Z,5.22
2019-03-16T21:02:41.142Z,5.20
2019-03-16T21:05:10.831Z,4.72
2019-03-16T21:07:39.266Z,5.17
2019-03-16T21:10:09.773Z,5.50
2019-03-16T21:12:38.276Z,5.37
2019-03-16T21:15:09.967Z,6.53
2019-03-16T21:17:38.500Z,5.63
2019-03-16T21:20:10.169Z,5.12
2019-03-16T21:22:39.275Z,5.40
2019-03-16T21:25:10.054Z,5.75
2019-03-16T21:27:38.666Z,5.10
2019-03-16T21:30:12.816Z,5.08
2019-03-16T21:32:41.251Z,6.00
2019-03-16T21:35:09.823Z,5.03
2019-03-16T21:37:38.289Z,5.30
2019-03-16T21:40:09.489Z,5.35
2019-03-16T21:42:38.013Z,5.42
2019-03-16T21:45:09.317Z,5.40
2019-03-16T21:47:37.778Z,5.37
2019-03-16T21:50:09.185Z,5.72
2019-03-16T21:52:37.701Z,5.15
2019-03-16T21:55:08.768Z,4.70
2019-03-16T21:57:37.304Z,4.70
2019-03-16T22:00:17.271Z,5.12
2019-03-16T22:02:45.808Z,5.37
2019-03-16T22:05:14.605Z,5.10
2019-03-16T22:07:43.177Z,6.20
2019-03-16T22:10:16.520Z,5.97
2019-03-16T22:12:45.047Z,5.50
2019-03-16T22:15:14.614Z,6.42
2019-03-16T22:17:43.505Z,5.90
2019-03-16T22:20:19.288Z,5.62
2019-03-16T22:22:47.796Z,6.28
2019-03-16T22:25:16.483Z,7.20
2019-03-16T22:27:44.997Z,6.28
2019-03-16T22:30:17.717Z,6.25
2019-03-16T22:32:46.263Z,7.10
2019-03-16T22:35:14.713Z,6.83
2019-03-16T22:37:43.184Z,7.05
2019-03-16T22:40:15.331Z,6.17
2019-03-16T22:42:44.204Z,6.70
2019-03-16T22:45:13.743Z,6.37
2019-03-16T22:47:42.442Z,5.83
2019-03-16T22:50:18.294Z,6.47
2019-03-16T22:52:46.803Z,6.08
2019-03-16T22:55:16.102Z,6.53
2019-03-16T22:57:45.212Z,6.62
2019-03-16T23:00:16.865Z,6.85
2019-03-16T23:02:45.472Z,5.90
2019-03-16T23:05:13.997Z,5.87
2019-03-16T23:07:42.430Z,6.20
2019-03-16T23:10:11.995Z,5.60
2019-03-16T23:12:40.495Z,4.80
2019-03-16T23:15:12.416Z,5.40
2019-03-16T23:17:40.851Z,5.90
2019-03-16T23:20:10.423Z,4.92
2019-03-16T23:22:38.951Z,4.90
2019-03-16T23:25:11.040Z,4.55
2019-03-16T23:27:39.655Z,4.37
2019-03-16T23:30:09.923Z,5.33
2019-03-16T23:32:38.427Z,4.90
2019-03-16T23:35:08.394Z,4.95
2019-03-16T23:37:36.901Z,4.83
2019-03-16T23:40:08.063Z,4.67
2019-03-16T23:42:36.592Z,4.22
2019-03-16T23:45:08.308Z,3.98
2019-03-16T23:47:36.810Z,4.40
2019-03-16T23:50:07.879Z,4.65
2019-03-16T23:52:37.151Z,5.03
2019-03-16T23:55:07.139Z,4.25
2019-03-16T23:57:35.569Z,4.83
